createdAt,value
2023-10-06T00:02:30.956Z,100.00
2023-10-06T00:05:12.666Z,100.00
2023-10-06T00:07:42.044Z,100.00
2023-10-06T00:10:21.266Z,100.00
2023-10-06T00:12:51.431Z,100.00
2023-10-06T00:15:27.898Z,100.00
2023-10-06T00:18:08.424Z,100.00
2023-10-06T00:20:46.547Z,100.00
2023-10-06T00:23:16.095Z,100.00
2023-10-06T00:25:43.883Z,100.00
2023-10-06T00:28:27.209Z,100.00
2023-10-06T00:30:59.112Z,100.00
2023-10-06T00:33:35.630Z,100.00
2023-10-06T00:36:12.736Z,100.00
2023-10-06T00:38:44.170Z,100.00
2023-10-06T00:41:16.162Z,100.00
2023-10-06T00:43:45.869Z,100.00
2023-10-06T00:46:15.888Z,100.00
2023-10-06T00:48:46.126Z,100.00
2023-10-06T00:51:21.132Z,100.00
2023-10-06T00:53:53.025Z,100.00
2023-10-06T00:56:24.865Z,100.00
2023-10-06T00:58:54.800Z,100.00
2023-10-06T01:01:24.169Z,100.00
2023-10-06T01:04:03.168Z,100.00
2023-10-06T01:06:35.305Z,100.00
2023-10-06T01:09:14.690Z,100.00
2023-10-06T01:11:52.156Z,100.00
2023-10-06T01:14:30.465Z,100.00
2023-10-06T01:17:16.387Z,100.00
2023-10-06T01:19:54.559Z,100.00
2023-10-06T01:22:26.381Z,100.00
2023-10-06T01:24:54.734Z,100.00
2023-10-06T01:27:29.876Z,100.00
2023-10-06T01:30:16.578Z,100.00
2023-10-06T01:32:47.476Z,100.00
2023-10-06T01:35:22.134Z,100.00
2023-10-06T01:37:49.793Z,100.00
2023-10-06T01:40:26.491Z,100.00
2023-10-06T01:42:54.699Z,100.00
2023-10-06T01:45:23.180Z,100.00
2023-10-06T01:48:12.560Z,100.00
2023-10-06T01:50:41.158Z,100.00
2023-10-06T01:53:17.797Z,100.00
2023-10-06T01:55:52.174Z,100.00
2023-10-06T01:58:19.792Z,100.00
2023-10-06T02:00:50.925Z,100.00
2023-10-06T02:03:22.999Z,100.00
2023-10-06T02:06:01.202Z,100.00
2023-10-06T02:08:28.736Z,100.00
2023-10-06T02:10:57.108Z,100.00
2023-10-06T02:13:24.804Z,100.00
2023-10-06T02:16:02.500Z,100.00
2023-10-06T02:18:38.002Z,100.00
2023-10-06T02:21:13.281Z,100.00
2023-10-06T02:23:48.355Z,100.00
2023-10-06T02:26:22.964Z,100.00
2023-10-06T02:28:51.924Z,100.00
2023-10-06T02:31:23.489Z,100.00
2023-10-06T02:33:53.498Z,100.00
2023-10-06T02:36:24.622Z,100.00
2023-10-06T02:38:53.376Z,100.00
2023-10-06T02:41:30.977Z,100.00
2023-10-06T02:44:28.884Z,100.00
2023-10-06T02:46:57.346Z,100.00
2023-10-06T02:49:41.037Z,100.00
2023-10-06T02:52:21.270Z,100.00
2023-10-06T02:55:06.039Z,100.00
2023-10-06T02:57:37.496Z,100.00
2023-10-06T03:00:39.148Z,100.00
2023-10-06T03:03:14.008Z,100.00
2023-10-06T03:05:43.062Z,100.00
2023-10-06T03:08:12.868Z,100.00
2023-10-06T03:10:44.899Z,100.00
2023-10-06T03:13:25.161Z,100.00
2023-10-06T03:15:52.916Z,100.00
2023-10-06T03:18:22.222Z,100.00
2023-10-06T03:20:51.312Z,100.00
2023-10-06T03:23:29.685Z,100.00
2023-10-06T03:25:58.004Z,100.00
2023-10-06T03:28:38.099Z,100.00
2023-10-06T03:31:22.110Z,100.00
2023-10-06T03:33:56.954Z,100.00
2023-10-06T03:36:39.050Z,100.00
2023-10-06T03:39:09.331Z,100.00
2023-10-06T03:41:38.911Z,100.00
2023-10-06T03:44:06.889Z,100.00
2023-10-06T03:46:40.416Z,100.00
2023-10-06T03:49:09.589Z,100.00
2023-10-06T03:51:40.077Z,100.00
2023-10-06T03:54:11.694Z,100.00
2023-10-06T03:56:39.179Z,100.00
2023-10-06T03:59:14.440Z,100.00
2023-10-06T04:01:45.803Z,100.00
2023-10-06T04:04:19.240Z,100.00
2023-10-06T04:06:49.273Z,100.00
2023-10-06T04:09:30.228Z,100.00
2023-10-06T04:12:02.965Z,100.00
2023-10-06T04:14:33.267Z,100.00
2023-10-06T04:17:02.923Z,100.00
2023-10-06T04:19:32.191Z,100.00
2023-10-06T04:21:59.548Z,100.00
2023-10-06T04:24:30.882Z,100.00
2023-10-06T04:27:06.726Z,100.00
2023-10-06T04:29:38.392Z,100.00
2023-10-06T04:32:07.396Z,100.00
2023-10-06T04:34:38.254Z,100.00
2023-10-06T04:37:09.209Z,100.00
2023-10-06T04:39:40.029Z,100.00
2023-10-06T04:42:07.703Z,100.00
2023-10-06T04:44:35.993Z,100.00
2023-10-06T04:47:03.404Z,100.00
2023-10-06T04:49:32.437Z,100.00
2023-10-06T04:52:01.563Z,100.00
2023-10-06T04:54:29.262Z,100.00
2023-10-06T04:56:58.066Z,100.00
2023-10-06T04:59:25.766Z,100.00
2023-10-06T05:01:54.640Z,100.00
2023-10-06T05:04:24.462Z,100.00
2023-10-06T05:06:54.509Z,100.00
2023-10-06T05:09:22.679Z,100.00
2023-10-06T05:11:51.367Z,100.00
2023-10-06T05:14:19.058Z,100.00
2023-10-06T05:16:46.474Z,100.00
2023-10-06T05:19:14.699Z,100.00
2023-10-06T05:21:42.206Z,100.00
2023-10-06T05:24:17.773Z,100.00
2023-10-06T05:26:45.911Z,100.00
2023-10-06T05:29:15.830Z,100.00
2023-10-06T05:31:46.564Z,100.00
2023-10-06T05:34:25.277Z,100.00
2023-10-06T05:36:57.861Z,100.00
2023-10-06T05:39:26.603Z,100.00
2023-10-06T05:41:55.520Z,100.00
2023-10-06T05:44:25.723Z,100.00
2023-10-06T05:46:55.463Z,100.00
2023-10-06T05:49:23.367Z,100.00
2023-10-06T05:51:52.951Z,100.00
2023-10-06T05:54:25.201Z,100.00
2023-10-06T05:56:55.631Z,100.00
2023-10-06T05:59:58.293Z,96.69
2023-10-06T06:02:30.366Z,85.35
2023-10-06T06:05:38.468Z,75.54
2023-10-06T06:08:10.331Z,71.05
2023-10-06T06:11:03.583Z,69.18
2023-10-06T06:13:32.383Z,70.15
2023-10-06T06:16:02.735Z,73.04
2023-10-06T06:18:35.962Z,73.20
2023-10-06T06:21:04.610Z,79.64
2023-10-06T06:23:37.274Z,81.13
2023-10-06T06:26:05.570Z,88.71
2023-10-06T06:28:34.474Z,90.50
2023-10-06T06:31:06.519Z,93.82
2023-10-06T06:33:34.416Z,93.43
2023-10-06T06:36:02.362Z,95.97
2023-10-06T06:38:40.942Z,91.24
2023-10-06T06:41:11.151Z,91.17
2023-10-06T06:43:44.950Z,91.16
2023-10-06T06:46:14.651Z,89.69
2023-10-06T06:48:48.261Z,86.66
2023-10-06T06:51:18.500Z,85.20
2023-10-06T06:53:48.273Z,83.10
2023-10-06T06:56:18.563Z,79.73
2023-10-06T06:58:48.577Z,79.84
2023-10-06T07:01:18.753Z,76.51
2023-10-06T07:03:49.181Z,78.90
2023-10-06T07:06:19.038Z,77.66
2023-10-06T07:08:48.273Z,78.38
2023-10-06T07:11:21.140Z,78.97
2023-10-06T07:13:54.606Z,78.49
2023-10-06T07:16:28.343Z,75.20
2023-10-06T07:18:59.599Z,71.51
2023-10-06T07:21:30.794Z,67.30
2023-10-06T07:23:58.956Z,65.39
2023-10-06T07:26:32.431Z,64.94
2023-10-06T07:29:04.339Z,65.96
2023-10-06T07:31:35.841Z,64.22
2023-10-06T07:34:09.662Z,63.29
2023-10-06T07:36:43.974Z,59.94
2023-10-06T07:39:24.692Z,59.28
2023-10-06T07:41:57.091Z,60.58
2023-10-06T07:45:05.721Z,60.73
2023-10-06T07:51:59.802Z,62.75
2023-10-06T07:54:34.273Z,60.71
2023-10-06T07:57:44.732Z,58.55
2023-10-06T08:00:25.690Z,55.98
2023-10-06T08:03:03.069Z,53.71
2023-10-06T08:06:01.825Z,52.80
2023-10-06T08:08:31.928Z,53.10
2023-10-06T08:11:07.534Z,54.49
2023-10-06T08:13:38.459Z,53.76
2023-10-06T08:16:10.668Z,53.37
2023-10-06T08:18:41.261Z,61.59
2023-10-06T08:21:13.329Z,48.82
2023-10-06T08:23:44.827Z,50.65
2023-10-06T08:26:20.752Z,48.26
2023-10-06T08:28:48.577Z,50.49
2023-10-06T08:31:19.822Z,46.79
2023-10-06T08:33:49.918Z,49.75
2023-10-06T08:36:22.271Z,48.67
2023-10-06T08:38:53.840Z,54.64
2023-10-06T08:41:30.647Z,48.88
2023-10-06T08:44:04.532Z,52.85
2023-10-06T08:46:36.582Z,52.45
2023-10-06T08:49:09.008Z,52.55
2023-10-06T08:51:41.974Z,51.36
2023-10-06T08:54:14.959Z,51.28
2023-10-06T08:56:44.796Z,47.71
2023-10-06T08:59:19.005Z,49.71
2023-10-06T09:01:46.836Z,49.59
2023-10-06T09:04:16.252Z,47.93
2023-10-06T09:07:09.513Z,47.55
2023-10-06T09:09:37.768Z,45.75
2023-10-06T09:12:10.845Z,46.05
2023-10-06T09:14:58.199Z,48.88
2023-10-06T09:17:37.609Z,48.36
2023-10-06T09:20:28.319Z,50.68
2023-10-06T09:23:04.067Z,47.10
2023-10-06T09:25:49.598Z,48.47
2023-10-06T09:28:18.743Z,47.86
2023-10-06T09:31:00.462Z,50.30
2023-10-06T09:33:43.284Z,50.45
2023-10-06T09:36:32.036Z,49.95
2023-10-06T09:39:07.812Z,51.96
2023-10-06T09:41:37.839Z,50.17
2023-10-06T09:44:09.737Z,49.06
2023-10-06T09:46:43.024Z,51.95
2023-10-06T09:49:18.649Z,49.31
2023-10-06T09:51:48.419Z,49.31
2023-10-06T09:54:16.657Z,47.57
2023-10-06T09:56:48.296Z,47.24
2023-10-06T09:59:29.329Z,48.63
2023-10-06T10:01:59.303Z,50.68
2023-10-06T10:04:34.056Z,52.16
2023-10-06T10:07:07.022Z,53.27
2023-10-06T10:09:39.098Z,53.30
2023-10-06T10:12:31.622Z,55.75
2023-10-06T10:15:39.088Z,56.62
2023-10-06T10:18:40.657Z,53.37
2023-10-06T10:21:13.348Z,54.31
2023-10-06T10:23:45.951Z,54.36
2023-10-06T10:26:22.100Z,51.18
2023-10-06T10:29:22.527Z,50.38
2023-10-06T10:32:10.112Z,52.25
2023-10-06T10:35:15.224Z,53.45
2023-10-06T10:38:05.855Z,52.49
2023-10-06T10:40:49.067Z,50.26
2023-10-06T10:43:19.768Z,47.97
2023-10-06T10:45:49.312Z,47.68
2023-10-06T10:48:17.245Z,47.47
2023-10-06T10:50:57.606Z,47.61
2023-10-06T10:53:30.607Z,47.48
2023-10-06T10:56:05.059Z,46.73
2023-10-06T10:58:45.586Z,47.81
2023-10-06T11:01:31.619Z,46.89
2023-10-06T11:04:32.694Z,47.66
2023-10-06T11:07:13.323Z,48.78
2023-10-06T11:09:42.235Z,49.81
2023-10-06T11:12:24.786Z,49.56
2023-10-06T11:15:16.912Z,49.69
2023-10-06T11:17:47.225Z,50.55
2023-10-06T11:23:13.036Z,49.79
2023-10-06T11:25:51.693Z,48.66
2023-10-06T11:28:21.340Z,49.16
2023-10-06T11:30:51.931Z,49.33
2023-10-06T11:33:24.266Z,48.31
2023-10-06T11:35:55.587Z,49.97
2023-10-06T11:38:25.509Z,48.53
2023-10-06T11:40:53.322Z,48.91
2023-10-06T11:43:23.013Z,46.46
2023-10-06T11:46:03.996Z,45.02
2023-10-06T11:48:37.345Z,45.27
2023-10-06T11:51:11.574Z,46.34
2023-10-06T11:53:41.957Z,47.66
2023-10-06T11:56:12.535Z,47.38
2023-10-06T11:58:42.318Z,47.56
2023-10-06T12:01:38.437Z,47.53
2023-10-06T12:04:24.195Z,49.70
2023-10-06T12:06:53.160Z,50.46
2023-10-06T12:09:27.428Z,50.54
2023-10-06T12:11:57.267Z,51.60
2023-10-06T12:14:27.969Z,50.83
2023-10-06T12:16:56.351Z,50.11
2023-10-06T12:19:27.309Z,51.47
2023-10-06T12:21:57.309Z,52.55
2023-10-06T12:24:33.355Z,49.25
2023-10-06T12:27:03.901Z,49.36
2023-10-06T12:29:33.346Z,50.83
2023-10-06T12:32:03.746Z,51.12
2023-10-06T12:34:34.704Z,50.20
2023-10-06T12:37:03.621Z,50.31
2023-10-06T12:39:37.290Z,48.54
2023-10-06T12:42:06.627Z,47.11
2023-10-06T12:44:41.273Z,45.88
2023-10-06T12:47:12.500Z,45.69
2023-10-06T12:49:48.065Z,46.65
2023-10-06T12:52:17.290Z,45.20
2023-10-06T12:54:45.787Z,45.00
2023-10-06T12:57:13.914Z,44.97
2023-10-06T12:59:43.212Z,44.26
2023-10-06T13:02:10.740Z,44.86
2023-10-06T13:04:44.471Z,44.59
2023-10-06T13:07:38.504Z,44.65
2023-10-06T13:10:11.036Z,44.47
2023-10-06T13:12:42.984Z,44.38
2023-10-06T13:15:14.355Z,44.63
2023-10-06T13:17:43.543Z,45.01
2023-10-06T13:20:17.714Z,45.50
2023-10-06T13:22:48.921Z,44.66
2023-10-06T13:25:22.805Z,44.20
2023-10-06T13:27:52.516Z,45.26
2023-10-06T13:30:21.776Z,44.34
2023-10-06T13:32:53.333Z,42.97
2023-10-06T13:35:21.946Z,44.08
2023-10-06T13:37:56.044Z,43.33
2023-10-06T13:40:24.013Z,44.08
2023-10-06T13:42:53.691Z,42.15
2023-10-06T13:45:25.667Z,41.67
2023-10-06T13:50:53.931Z,41.51
2023-10-06T13:53:23.182Z,41.79
2023-10-06T13:55:52.371Z,42.43
2023-10-06T13:58:20.722Z,44.21
2023-10-06T14:00:49.041Z,43.30
2023-10-06T14:03:18.712Z,43.11
2023-10-06T14:05:57.337Z,45.11
2023-10-06T14:08:30.619Z,44.64
2023-10-06T14:11:02.962Z,44.68
2023-10-06T14:13:36.174Z,44.21
2023-10-06T14:16:19.926Z,44.42
2023-10-06T14:18:48.980Z,43.96
2023-10-06T14:21:37.643Z,44.16
2023-10-06T14:24:12.081Z,45.07
2023-10-06T14:26:42.134Z,44.13
2023-10-06T14:29:11.327Z,44.59
2023-10-06T14:31:49.290Z,45.30
2023-10-06T14:34:37.891Z,44.67
2023-10-06T14:37:26.651Z,43.79
2023-10-06T14:40:13.877Z,44.32
2023-10-06T14:43:07.821Z,46.92
2023-10-06T14:45:54.512Z,44.96
2023-10-06T14:48:28.634Z,47.11
2023-10-06T14:51:00.990Z,45.77
2023-10-06T14:53:31.837Z,45.55
2023-10-06T14:56:02.233Z,45.89
2023-10-06T14:58:31.767Z,46.80
2023-10-06T15:01:08.549Z,45.20
2023-10-06T15:03:40.285Z,45.59
2023-10-06T15:06:11.475Z,44.74
2023-10-06T15:08:40.044Z,45.82
2023-10-06T15:11:15.189Z,45.38
2023-10-06T15:13:43.064Z,46.37
2023-10-06T15:16:15.258Z,47.21
2023-10-06T15:18:47.461Z,48.04
2023-10-06T15:21:18.394Z,46.11
2023-10-06T15:23:54.673Z,47.75
2023-10-06T15:26:27.457Z,48.33
2023-10-06T15:28:56.810Z,47.93
2023-10-06T15:31:29.952Z,48.78
2023-10-06T15:33:59.072Z,48.59
2023-10-06T15:36:28.476Z,49.31
2023-10-06T15:39:04.179Z,51.62
2023-10-06T15:41:32.715Z,51.19
2023-10-06T15:44:04.887Z,50.28
2023-10-06T15:46:33.676Z,51.35
2023-10-06T15:49:01.539Z,51.62
2023-10-06T15:51:30.637Z,53.17
2023-10-06T15:56:26.562Z,54.11
2023-10-06T15:59:01.841Z,54.98
2023-10-06T16:01:29.918Z,54.43
2023-10-06T16:03:59.534Z,55.37
2023-10-06T16:06:27.473Z,56.12
2023-10-06T16:08:56.777Z,55.79
2023-10-06T16:11:29.627Z,56.87
2023-10-06T16:13:58.353Z,56.92
2023-10-06T16:16:27.172Z,57.49
2023-10-06T16:18:54.938Z,58.47
2023-10-06T16:21:22.395Z,57.92
2023-10-06T16:23:53.570Z,57.95
2023-10-06T16:26:21.148Z,58.90
2023-10-06T16:28:50.264Z,57.83
2023-10-06T16:31:49.865Z,59.62
2023-10-06T16:34:22.874Z,58.31
2023-10-06T16:36:50.543Z,61.42
2023-10-06T16:39:23.204Z,64.01
2023-10-06T16:41:51.608Z,63.51
2023-10-06T16:44:24.528Z,62.02
2023-10-06T16:46:52.330Z,61.29
2023-10-06T16:49:20.200Z,63.71
2023-10-06T16:52:05.402Z,64.26
2023-10-06T16:54:45.245Z,62.48
2023-10-06T16:57:13.199Z,65.26
2023-10-06T16:59:59.528Z,64.81
2023-10-06T17:02:27.856Z,64.05
2023-10-06T17:05:05.836Z,65.33
2023-10-06T17:07:40.227Z,66.98
2023-10-06T17:10:13.758Z,66.10
2023-10-06T17:12:41.618Z,66.64
2023-10-06T17:15:11.824Z,67.72
2023-10-06T17:17:45.536Z,67.32
2023-10-06T17:20:22.720Z,66.79
2023-10-06T17:22:50.407Z,66.22
2023-10-06T17:25:18.263Z,66.99
2023-10-06T17:27:48.240Z,67.39
2023-10-06T17:30:19.989Z,66.73
2023-10-06T17:33:20.775Z,70.31
2023-10-06T17:35:55.432Z,72.37
2023-10-06T17:38:31.073Z,75.77
2023-10-06T17:41:24.564Z,77.08
2023-10-06T17:43:58.492Z,76.90
2023-10-06T17:46:29.984Z,78.52
2023-10-06T17:49:08.308Z,80.54
2023-10-06T17:55:20.014Z,88.38
2023-10-06T17:57:53.371Z,84.92
2023-10-06T18:00:24.641Z,84.75
2023-10-06T18:05:59.559Z,85.55
2023-10-06T18:45:59.543Z,93.24
2023-10-06T18:48:47.358Z,91.23
2023-10-06T18:51:42.480Z,93.52
2023-10-06T18:54:33.080Z,92.28
2023-10-06T20:27:00.257Z,100.00
2023-10-06T20:35:19.808Z,100.00
2023-10-06T20:37:50.347Z,100.00
2023-10-06T20:40:39.991Z,100.00
2023-10-06T20:43:40.156Z,100.00
2023-10-06T20:46:51.955Z,99.49
2023-10-06T20:49:45.411Z,97.55
2023-10-06T20:52:22.359Z,97.10
2023-10-06T20:58:40.974Z,98.85
2023-10-06T21:01:31.386Z,100.00
2023-10-06T21:04:09.475Z,100.00
2023-10-06T21:06:52.896Z,100.00
2023-10-06T21:09:34.672Z,100.00
2023-10-06T21:12:39.476Z,100.00
2023-10-06T21:15:15.920Z,100.00
2023-10-06T21:18:09.974Z,100.00
2023-10-06T21:20:47.716Z,100.00
2023-10-06T21:23:35.820Z,100.00
2023-10-06T21:26:15.339Z,100.00
2023-10-06T21:28:55.621Z,100.00
2023-10-06T21:31:31.904Z,100.00
2023-10-06T21:34:09.496Z,100.00
2023-10-06T21:37:03.433Z,100.00
2023-10-06T21:40:06.937Z,100.00
2023-10-06T21:42:36.789Z,100.00
2023-10-06T21:45:10.874Z,100.00
2023-10-06T21:47:39.530Z,100.00
2023-10-06T21:50:11.439Z,100.00
2023-10-06T21:52:41.992Z,100.00
2023-10-06T21:55:12.544Z,100.00
2023-10-06T21:57:42.091Z,100.00
2023-10-06T22:00:27.089Z,100.00
2023-10-06T22:03:03.418Z,100.00
2023-10-06T22:08:35.252Z,100.00
2023-10-06T22:11:13.214Z,100.00
2023-10-06T22:14:10.540Z,100.00
2023-10-06T22:16:43.320Z,100.00
2023-10-06T22:19:12.544Z,100.00
2023-10-06T22:21:44.192Z,100.00
2023-10-06T22:24:16.760Z,100.00
2023-10-06T22:26:49.867Z,100.00
2023-10-06T22:29:17.975Z,100.00
2023-10-06T22:31:55.972Z,100.00
2023-10-06T22:34:25.054Z,100.00
2023-10-06T22:37:45.558Z,100.00
2023-10-06T22:40:20.101Z,100.00
2023-10-06T22:43:19.360Z,100.00
2023-10-06T22:46:02.111Z,100.00
2023-10-06T22:56:08.927Z,100.00
2023-10-06T22:58:39.979Z,100.00
2023-10-06T23:04:17.325Z,100.00
2023-10-06T23:06:48.824Z,100.00
2023-10-06T23:09:43.817Z,92.84
2023-10-06T23:12:22.605Z,100.00
2023-10-06T23:14:58.351Z,100.00
2023-10-06T23:17:33.943Z,100.00
2023-10-06T23:20:28.036Z,100.00
2023-10-06T23:23:02.809Z,100.00
2023-10-06T23:25:59.686Z,100.00
2023-10-06T23:28:34.270Z,100.00
2023-10-06T23:31:05.324Z,100.00
2023-10-06T23:33:50.368Z,100.00
2023-10-06T23:36:51.955Z,100.00
2023-10-06T23:39:30.978Z,100.00
2023-10-06T23:41:58.739Z,100.00
2023-10-06T23:44:35.203Z,100.00
2023-10-06T23:47:12.897Z,100.00
2023-10-06T23:49:43.318Z,100.00
2023-10-06T23:52:45.215Z,100.00
2023-10-06T23:55:17.556Z,100.00
2023-10-06T23:57:52.829Z,100.00
